Airport ID:KO69
Update Time (UTC):27/10/2021 17:27
Wind Speed (Knots):1
Wind Direction (Magnetic):240
Temperature (°C):15
Dew Point (°C):14
Humidity (%):92
Altimeter (inHg):30.36
Density Altitude (Feet):
Visibility:10+
Clouds (Hundreds of feet):CLR
Present Weather:
METAR:METAR KO69 271725Z AUTO 00000KT 10SM CLR 15/14 A3036 RMK A01

The data displayed is for advisory purposes only and is not to be used for flight planning or operations.